createdAt,value
2017-11-26T00:01:55.851Z,15.18
2017-11-26T00:04:24.635Z,13.38
2017-11-26T00:06:55.353Z,17.17
2017-11-26T00:09:23.385Z,16.30
2017-11-26T00:11:53.352Z,13.95
2017-11-26T00:14:21.395Z,17.73
2017-11-26T00:16:55.567Z,15.80
2017-11-26T00:19:24.355Z,12.68
2017-11-26T00:21:53.551Z,14.80
2017-11-26T00:24:26.491Z,11.68
2017-11-26T00:26:55.467Z,15.35
2017-11-26T00:29:23.517Z,13.15
2017-11-26T00:31:51.536Z,15.80
2017-11-26T00:34:23.474Z,18.70
2017-11-26T00:36:51.528Z,14.23
2017-11-26T00:39:19.551Z,21.25
2017-11-26T00:41:48.519Z,16.62
2017-11-26T00:44:16.596Z,18.77
2017-11-26T00:46:44.620Z,17.50
2017-11-26T00:49:12.659Z,22.77
2017-11-26T00:51:40.694Z,20.20
2017-11-26T00:54:08.711Z,21.92
2017-11-26T00:56:36.740Z,18.23
2017-11-26T00:59:05.759Z,24.45
2017-11-26T01:01:34.727Z,27.40
2017-11-26T01:04:02.751Z,24.83
2017-11-26T01:06:30.800Z,22.80
2017-11-26T01:09:02.431Z,27.25
2017-11-26T01:11:31.243Z,25.10
2017-11-26T01:14:03.056Z,23.73
2017-11-26T01:16:37.415Z,30.62
2017-11-26T01:19:06.373Z,23.35
2017-11-26T01:21:36.386Z,21.65
2017-11-26T01:24:04.694Z,22.20
2017-11-26T01:26:32.719Z,24.58
2017-11-26T01:29:02.795Z,22.17
2017-11-26T01:31:34.811Z,24.00
2017-11-26T01:34:03.835Z,26.25
2017-11-26T01:36:32.644Z,28.67
2017-11-26T01:39:02.603Z,25.10
2017-11-26T01:41:30.630Z,28.58
2017-11-26T01:43:59.675Z,27.67
2017-11-26T01:46:34.943Z,23.40
2017-11-26T01:49:04.922Z,26.08
2017-11-26T01:51:37.020Z,29.02
2017-11-26T01:54:08.762Z,25.00
2017-11-26T01:56:36.774Z,28.77
2017-11-26T01:59:04.826Z,28.90
2017-11-26T02:01:34.797Z,26.02
2017-11-26T02:04:11.354Z,36.65
2017-11-26T02:06:40.354Z,26.87
2017-11-26T02:09:08.373Z,32.05
2017-11-26T02:11:40.822Z,30.42
2017-11-26T02:14:10.619Z,27.45
2017-11-26T02:16:38.667Z,29.95
2017-11-26T02:19:06.722Z,31.27
2017-11-26T02:21:34.753Z,29.37
2017-11-26T02:24:07.118Z,34.08
2017-11-26T02:26:38.874Z,34.00
2017-11-26T02:29:06.927Z,33.05
2017-11-26T02:31:47.856Z,26.77
2017-11-26T02:34:28.830Z,28.50
2017-11-26T02:36:56.876Z,32.50
2017-11-26T02:39:25.854Z,35.85
2017-11-26T02:41:53.881Z,30.25
2017-11-26T02:44:21.908Z,29.23
2017-11-26T02:46:49.946Z,30.80
2017-11-26T02:49:17.978Z,30.25
2017-11-26T02:51:46.003Z,35.22
2017-11-26T02:54:14.803Z,33.40
2017-11-26T02:56:42.851Z,31.87
2017-11-26T02:59:11.683Z,34.83
2017-11-26T03:01:45.659Z,32.90
2017-11-26T03:04:16.462Z,35.10
2017-11-26T03:06:57.207Z,29.83
2017-11-26T03:09:26.010Z,34.53
2017-11-26T03:11:54.035Z,34.50
2017-11-26T03:14:22.098Z,37.83
2017-11-26T03:16:59.210Z,36.25
2017-11-26T03:19:27.249Z,36.30
2017-11-26T03:21:55.290Z,32.20
2017-11-26T03:24:24.295Z,40.88
2017-11-26T03:26:53.125Z,35.30
2017-11-26T03:29:21.150Z,33.92
2017-11-26T03:31:50.127Z,35.22
2017-11-26T03:34:19.134Z,37.33
2017-11-26T03:36:47.178Z,35.75
2017-11-26T03:39:17.214Z,37.55
2017-11-26T03:41:47.234Z,33.58
2017-11-26T03:44:16.238Z,34.63
2017-11-26T03:46:47.682Z,34.85
2017-11-26T03:49:16.474Z,31.02
2017-11-26T03:51:47.230Z,34.80
2017-11-26T03:54:15.291Z,35.63
2017-11-26T03:56:44.085Z,32.83
2017-11-26T03:59:13.046Z,31.20
2017-11-26T04:01:41.087Z,30.48
2017-11-26T04:04:09.114Z,27.48
2017-11-26T04:06:38.922Z,28.87
2017-11-26T04:09:08.698Z,27.90
2017-11-26T04:11:38.717Z,31.37
2017-11-26T04:14:11.542Z,25.55
2017-11-26T04:16:47.557Z,24.95
2017-11-26T04:19:15.618Z,26.73
2017-11-26T04:21:43.631Z,23.08
2017-11-26T04:24:11.666Z,28.62
2017-11-26T04:26:39.713Z,26.67
2017-11-26T04:29:07.813Z,29.27
2017-11-26T04:31:35.889Z,26.12
2017-11-26T04:34:04.957Z,31.60
2017-11-26T04:36:33.053Z,24.25
2017-11-26T04:39:01.289Z,25.85
2017-11-26T04:41:36.363Z,30.00
2017-11-26T04:44:05.366Z,26.17
2017-11-26T04:46:40.805Z,27.50
2017-11-26T04:49:18.990Z,23.75
2017-11-26T04:51:50.561Z,28.55
2017-11-26T04:54:19.542Z,28.02
2017-11-26T04:56:49.561Z,24.98
2017-11-26T04:59:18.569Z,25.23
2017-11-26T05:01:50.969Z,24.23
2017-11-26T05:04:21.690Z,22.27
2017-11-26T05:06:50.653Z,25.40
2017-11-26T05:09:23.248Z,26.60
2017-11-26T05:11:53.034Z,21.73
2017-11-26T05:14:21.293Z,25.45
2017-11-26T05:16:56.240Z,29.63
2017-11-26T05:19:27.290Z,24.08
2017-11-26T05:21:56.278Z,26.10
2017-11-26T05:24:25.257Z,28.08
2017-11-26T05:26:59.873Z,26.05
2017-11-26T05:29:32.266Z,22.98
2017-11-26T05:32:01.285Z,28.02
2017-11-26T05:34:30.085Z,27.15
2017-11-26T05:36:58.105Z,23.95
2017-11-26T05:39:26.137Z,24.98
2017-11-26T05:41:54.181Z,23.87
2017-11-26T05:44:22.980Z,28.42
2017-11-26T05:46:52.961Z,21.77
2017-11-26T05:49:20.989Z,18.98
2017-11-26T05:51:50.009Z,21.52
2017-11-26T05:54:19.017Z,23.27
2017-11-26T05:56:47.997Z,26.80
2017-11-26T05:59:16.025Z,23.52
2017-11-26T06:01:44.993Z,23.40
2017-11-26T06:04:15.713Z,18.75
2017-11-26T06:06:50.437Z,20.90
2017-11-26T06:09:19.420Z,21.85
2017-11-26T06:11:49.969Z,19.87
2017-11-26T06:14:20.693Z,18.83
2017-11-26T06:16:50.492Z,25.50
2017-11-26T06:19:18.513Z,27.67
2017-11-26T06:21:47.545Z,17.20
2017-11-26T06:24:16.593Z,20.65
2017-11-26T06:26:48.617Z,20.83
2017-11-26T06:29:20.477Z,22.62
2017-11-26T06:31:48.511Z,22.20
2017-11-26T06:34:16.532Z,26.12
2017-11-26T06:36:45.357Z,19.67
2017-11-26T06:39:14.389Z,18.20
2017-11-26T06:41:46.968Z,19.65
2017-11-26T06:44:15.957Z,17.75
2017-11-26T06:46:43.984Z,18.35
2017-11-26T06:49:12.017Z,16.12
2017-11-26T06:51:45.284Z,20.65
2017-11-26T06:54:13.321Z,15.88
2017-11-26T06:56:48.806Z,16.08
2017-11-26T06:59:16.836Z,19.95
2017-11-26T07:01:45.866Z,19.70
2017-11-26T07:04:14.844Z,15.85
2017-11-26T07:06:48.576Z,22.48
2017-11-26T07:09:19.301Z,24.20
2017-11-26T07:11:49.332Z,27.27
2017-11-26T07:14:18.300Z,28.65
2017-11-26T07:16:48.336Z,32.72
2017-11-26T07:19:20.164Z,22.42
2017-11-26T07:21:56.723Z,22.05
2017-11-26T07:24:26.444Z,15.80
2017-11-26T07:26:54.455Z,19.05
2017-11-26T07:29:22.500Z,16.42
2017-11-26T07:31:53.932Z,15.35
2017-11-26T07:34:21.965Z,16.87
2017-11-26T07:36:55.505Z,16.08
2017-11-26T07:39:24.531Z,14.43
2017-11-26T07:41:54.360Z,13.60
2017-11-26T07:44:22.385Z,13.73
2017-11-26T07:46:50.409Z,13.00
2017-11-26T07:49:19.336Z,12.50
2017-11-26T07:51:47.352Z,13.77
2017-11-26T07:54:18.011Z,13.88
2017-11-26T07:56:47.036Z,13.98
2017-11-26T07:59:15.059Z,13.38
2017-11-26T08:01:44.000Z,14.27
2017-11-26T08:04:12.019Z,13.30
2017-11-26T08:06:40.048Z,16.08
2017-11-26T08:09:09.036Z,12.23
2017-11-26T08:11:45.556Z,12.30
2017-11-26T08:14:15.528Z,11.43
2017-11-26T08:16:49.512Z,12.63
2017-11-26T08:19:17.544Z,32.03
2017-11-26T08:21:45.552Z,19.05
2017-11-26T08:24:13.563Z,11.32
2017-11-26T08:26:46.347Z,14.02
2017-11-26T08:29:14.331Z,11.85
2017-11-26T08:31:42.351Z,11.65
2017-11-26T08:34:14.380Z,13.43
2017-11-26T08:36:42.391Z,9.95
2017-11-26T08:39:10.408Z,9.93
2017-11-26T08:41:38.448Z,14.45
2017-11-26T08:44:07.235Z,14.45
2017-11-26T08:46:36.926Z,16.40
2017-11-26T08:49:04.962Z,11.88
2017-11-26T08:51:33.744Z,15.60
2017-11-26T08:54:02.760Z,12.40
2017-11-26T08:56:30.828Z,12.85
2017-11-26T08:58:58.851Z,11.32
2017-11-26T09:01:26.868Z,16.33
2017-11-26T09:03:54.907Z,12.57
2017-11-26T09:06:23.368Z,11.95
2017-11-26T09:08:53.812Z,11.07
2017-11-26T09:11:21.863Z,16.42
2017-11-26T09:13:50.808Z,13.13
2017-11-26T09:16:18.823Z,10.57
2017-11-26T09:18:48.794Z,16.40
2017-11-26T09:21:16.824Z,14.05
2017-11-26T09:23:44.852Z,17.62
2017-11-26T09:26:13.844Z,12.77
2017-11-26T09:28:45.383Z,13.20
2017-11-26T09:31:14.311Z,12.27
2017-11-26T09:33:42.327Z,13.00
2017-11-26T09:36:10.344Z,12.80
2017-11-26T09:38:39.131Z,10.65
2017-11-26T09:41:08.894Z,8.48
2017-11-26T09:43:40.359Z,14.25
2017-11-26T09:46:08.376Z,12.10
2017-11-26T09:48:36.392Z,11.40
2017-11-26T09:51:04.428Z,14.70
2017-11-26T09:53:32.444Z,10.07
2017-11-26T09:56:00.464Z,10.00
2017-11-26T09:58:28.503Z,13.10
2017-11-26T10:01:05.000Z,14.10
2017-11-26T10:03:38.923Z,11.20
2017-11-26T10:06:07.931Z,8.85
2017-11-26T10:08:37.859Z,13.48
2017-11-26T10:11:05.886Z,14.93
2017-11-26T10:13:37.680Z,8.10
2017-11-26T10:16:07.735Z,13.62
2017-11-26T10:18:36.511Z,7.53
2017-11-26T10:21:05.287Z,9.95
2017-11-26T10:23:34.207Z,9.68
2017-11-26T10:26:02.225Z,8.85
2017-11-26T10:28:33.274Z,10.25
2017-11-26T10:31:04.926Z,8.88
2017-11-26T10:33:38.578Z,9.88
2017-11-26T10:36:12.386Z,12.80
2017-11-26T10:38:41.323Z,9.65
2017-11-26T10:41:09.346Z,7.60
2017-11-26T10:43:38.295Z,6.57
2017-11-26T10:46:06.314Z,8.35
2017-11-26T10:48:35.233Z,8.40
2017-11-26T10:51:03.266Z,10.00
2017-11-26T10:53:32.034Z,8.32
2017-11-26T10:56:06.486Z,8.48
2017-11-26T10:58:35.408Z,13.77
2017-11-26T11:01:03.431Z,7.25
2017-11-26T11:03:32.214Z,10.27
2017-11-26T11:06:01.058Z,7.70
2017-11-26T11:08:29.079Z,6.37
2017-11-26T11:10:57.111Z,7.40
2017-11-26T11:13:25.130Z,7.50
2017-11-26T11:15:53.142Z,6.07
2017-11-26T11:18:21.171Z,6.05
2017-11-26T11:20:57.298Z,5.78
2017-11-26T11:23:29.567Z,6.43
2017-11-26T11:25:58.354Z,5.22
2017-11-26T11:28:29.978Z,5.10
2017-11-26T11:30:58.071Z,4.95
2017-11-26T11:33:26.071Z,6.87
2017-11-26T11:35:54.098Z,5.03
2017-11-26T11:38:22.111Z,7.35
2017-11-26T11:40:52.030Z,5.20
2017-11-26T11:43:20.074Z,5.50
2017-11-26T11:45:48.854Z,6.90
2017-11-26T11:48:19.562Z,4.75
2017-11-26T11:50:47.579Z,5.72
2017-11-26T11:53:16.585Z,4.30
2017-11-26T11:55:44.610Z,4.97
2017-11-26T11:58:12.630Z,3.72
2017-11-26T12:00:40.642Z,4.85
2017-11-26T12:03:14.461Z,5.43
2017-11-26T12:05:42.510Z,6.90
2017-11-26T12:08:11.459Z,5.47
2017-11-26T12:10:42.455Z,7.35
2017-11-26T12:13:12.886Z,3.80
2017-11-26T12:15:41.809Z,5.28
2017-11-26T12:18:10.722Z,4.30
2017-11-26T12:20:43.471Z,5.10
2017-11-26T12:23:11.515Z,4.80
2017-11-26T12:25:39.531Z,7.80
2017-11-26T12:28:07.602Z,4.43
2017-11-26T12:30:35.646Z,8.60
2017-11-26T12:33:05.330Z,8.95
2017-11-26T12:35:37.314Z,4.32
2017-11-26T12:38:07.026Z,5.65
2017-11-26T12:40:35.814Z,5.20
2017-11-26T12:43:07.942Z,6.43
2017-11-26T12:45:35.970Z,8.05
2017-11-26T12:48:03.987Z,5.30
2017-11-26T12:50:32.026Z,6.20
2017-11-26T12:53:00.042Z,10.23
2017-11-26T12:55:28.854Z,13.40
2017-11-26T12:57:56.874Z,9.32
2017-11-26T13:00:24.891Z,7.90
2017-11-26T13:02:52.931Z,14.87
2017-11-26T13:05:20.953Z,11.20
2017-11-26T13:07:49.977Z,5.28
2017-11-26T13:10:18.017Z,7.90
2017-11-26T13:12:49.821Z,6.97
2017-11-26T13:15:17.857Z,8.75
2017-11-26T13:17:45.892Z,14.27
2017-11-26T13:20:13.930Z,6.90
2017-11-26T13:22:45.674Z,7.90
2017-11-26T13:25:17.253Z,17.42
2017-11-26T13:27:46.042Z,10.40
2017-11-26T13:30:18.285Z,7.70
2017-11-26T13:32:47.273Z,11.30
2017-11-26T13:35:15.317Z,9.82
2017-11-26T13:37:45.277Z,21.77
2017-11-26T13:40:14.253Z,19.70
2017-11-26T13:42:42.290Z,9.40
2017-11-26T13:45:10.310Z,9.80
2017-11-26T13:47:41.041Z,11.88
2017-11-26T13:50:09.981Z,16.62
2017-11-26T13:52:37.997Z,9.90
2017-11-26T13:55:06.969Z,5.35
2017-11-26T13:57:35.993Z,6.25
2017-11-26T14:00:04.013Z,8.05
2017-11-26T14:02:32.937Z,11.60
2017-11-26T14:05:03.981Z,10.27
2017-11-26T14:07:32.005Z,18.23
2017-11-26T14:10:04.501Z,10.43
2017-11-26T14:12:32.539Z,24.52
2017-11-26T14:15:00.553Z,23.23
2017-11-26T14:17:31.822Z,18.17
2017-11-26T14:20:04.582Z,7.22
2017-11-26T14:22:38.188Z,7.25
2017-11-26T14:25:09.953Z,15.18
2017-11-26T14:27:41.597Z,4.87
2017-11-26T14:30:10.653Z,6.30
2017-11-26T14:32:42.070Z,7.70
2017-11-26T14:35:17.557Z,7.50
2017-11-26T14:37:45.589Z,8.82
2017-11-26T14:40:13.621Z,7.40
2017-11-26T14:42:42.524Z,6.85
2017-11-26T14:45:10.550Z,5.45
2017-11-26T14:47:38.564Z,5.75
2017-11-26T14:50:10.113Z,6.10
2017-11-26T14:52:39.029Z,5.25
2017-11-26T14:55:07.045Z,6.85
2017-11-26T14:57:39.341Z,9.30
2017-11-26T15:00:08.313Z,5.55
2017-11-26T15:02:36.338Z,6.93
2017-11-26T15:05:05.269Z,5.78
2017-11-26T15:07:33.293Z,6.90
2017-11-26T15:10:01.318Z,5.30
2017-11-26T15:12:29.374Z,11.70
2017-11-26T15:14:57.396Z,6.12
2017-11-26T15:17:27.162Z,9.73
2017-11-26T15:19:56.102Z,5.50
2017-11-26T15:22:24.124Z,6.95
2017-11-26T15:24:56.713Z,7.32
2017-11-26T15:27:24.741Z,6.60
2017-11-26T15:29:53.781Z,7.40
2017-11-26T15:32:23.700Z,11.18
2017-11-26T15:34:53.613Z,5.12
2017-11-26T15:37:22.517Z,12.10
2017-11-26T15:39:51.312Z,6.80
2017-11-26T15:42:19.340Z,6.10
2017-11-26T15:44:47.357Z,8.10
2017-11-26T15:47:16.321Z,10.43
2017-11-26T15:49:45.296Z,6.22
2017-11-26T15:52:13.332Z,5.75
2017-11-26T15:54:46.196Z,7.93
2017-11-26T15:57:18.665Z,6.60
2017-11-26T15:59:52.134Z,9.75
2017-11-26T16:02:21.106Z,5.72
2017-11-26T16:04:52.449Z,12.52
2017-11-26T16:07:21.364Z,8.05
2017-11-26T16:09:49.396Z,10.82
2017-11-26T16:12:17.464Z,10.45
2017-11-26T16:14:47.404Z,24.17
2017-11-26T16:17:17.344Z,14.52
2017-11-26T16:19:48.048Z,7.03
2017-11-26T16:22:17.002Z,9.52
2017-11-26T16:24:45.012Z,9.32
2017-11-26T16:27:13.024Z,7.12
2017-11-26T16:29:42.022Z,8.32
2017-11-26T16:32:11.777Z,8.75
2017-11-26T16:34:39.812Z,12.00
2017-11-26T16:37:13.849Z,10.48
2017-11-26T16:39:41.896Z,11.18
2017-11-26T16:42:13.904Z,8.10
2017-11-26T16:44:43.916Z,12.57
2017-11-26T16:47:12.900Z,8.65
2017-11-26T16:49:41.908Z,10.40
2017-11-26T16:52:09.943Z,16.87
2017-11-26T16:54:37.967Z,17.98
2017-11-26T16:57:09.907Z,10.23
2017-11-26T16:59:38.900Z,12.40
2017-11-26T17:02:06.915Z,13.38
2017-11-26T17:04:36.888Z,6.47
2017-11-26T17:07:05.859Z,10.30
2017-11-26T17:09:33.877Z,6.68
2017-11-26T17:12:01.907Z,8.32
2017-11-26T17:14:30.894Z,8.48
2017-11-26T17:17:00.716Z,10.85
2017-11-26T17:19:28.752Z,10.93
2017-11-26T17:21:56.773Z,12.00
2017-11-26T17:24:27.469Z,18.95
2017-11-26T17:26:55.508Z,12.77
2017-11-26T17:29:24.441Z,11.73
2017-11-26T17:31:52.460Z,8.32
2017-11-26T17:34:31.659Z,16.95
2017-11-26T17:37:00.452Z,14.95
2017-11-26T17:39:29.243Z,10.15
2017-11-26T17:41:58.036Z,18.95
2017-11-26T17:44:28.728Z,9.40
2017-11-26T17:47:02.241Z,14.70
2017-11-26T17:49:34.379Z,16.37
2017-11-26T17:52:03.396Z,12.35
2017-11-26T17:54:31.423Z,13.95
2017-11-26T17:57:01.197Z,52.25
2017-11-26T17:59:29.999Z,32.10
2017-11-26T18:01:59.967Z,10.10
2017-11-26T18:04:31.216Z,11.05
2017-11-26T18:07:09.607Z,6.68
2017-11-26T18:09:37.632Z,7.57
2017-11-26T18:12:07.415Z,10.60
2017-11-26T18:14:42.835Z,7.50
2017-11-26T18:17:11.844Z,9.18
2017-11-26T18:19:39.868Z,8.07
2017-11-26T18:22:12.603Z,8.30
2017-11-26T18:24:40.616Z,8.20
2017-11-26T18:27:09.551Z,9.20
2017-11-26T18:29:42.039Z,8.00
2017-11-26T18:32:11.031Z,11.65
2017-11-26T18:34:42.903Z,23.12
2017-11-26T18:37:11.876Z,12.13
2017-11-26T18:39:39.895Z,10.68
2017-11-26T18:42:14.753Z,15.00
2017-11-26T18:44:48.469Z,9.98
2017-11-26T18:47:23.174Z,6.30
2017-11-26T18:49:54.247Z,8.45
2017-11-26T18:52:23.258Z,13.00
2017-11-26T18:54:55.499Z,10.68
2017-11-26T18:57:23.542Z,24.70
2017-11-26T18:59:51.547Z,8.05
2017-11-26T19:02:19.560Z,8.23
2017-11-26T19:04:47.590Z,6.03
2017-11-26T19:07:15.614Z,4.90
2017-11-26T19:09:44.407Z,9.25
2017-11-26T19:12:12.435Z,7.05
2017-11-26T19:14:40.452Z,9.25
2017-11-26T19:17:08.494Z,7.80
2017-11-26T19:19:37.327Z,9.80
2017-11-26T19:22:07.279Z,6.78
2017-11-26T19:24:36.071Z,6.97
2017-11-26T19:29:37.673Z,12.23
2017-11-26T19:32:05.690Z,8.67
2017-11-26T19:34:34.627Z,11.38
2017-11-26T19:37:02.683Z,7.28
2017-11-26T19:39:31.471Z,12.20
2017-11-26T19:41:59.537Z,8.57
2017-11-26T19:44:30.247Z,14.05
2017-11-26T19:46:58.266Z,8.32
2017-11-26T19:49:27.447Z,8.55
2017-11-26T19:52:00.596Z,14.80
2017-11-26T19:54:28.628Z,7.68
2017-11-26T19:57:03.216Z,10.13
2017-11-26T19:59:32.010Z,7.18
2017-11-26T20:02:01.939Z,6.82
2017-11-26T20:04:30.032Z,7.87
2017-11-26T20:06:58.067Z,12.50
2017-11-26T20:09:30.731Z,7.70
2017-11-26T20:11:59.515Z,8.30
2017-11-26T20:14:31.541Z,7.65
2017-11-26T20:17:00.598Z,15.15
2017-11-26T20:19:28.630Z,9.23
2017-11-26T20:21:57.722Z,9.10
2017-11-26T20:24:25.739Z,9.23
2017-11-26T20:26:55.548Z,7.03
2017-11-26T20:29:24.382Z,7.53
2017-11-26T20:31:53.398Z,10.02
2017-11-26T20:34:24.146Z,16.25
2017-11-26T20:36:53.034Z,10.68
2017-11-26T20:39:21.047Z,14.85
2017-11-26T20:41:52.629Z,11.15
2017-11-26T20:44:27.011Z,12.63
2017-11-26T20:46:57.617Z,7.80
2017-11-26T20:49:26.534Z,6.82
2017-11-26T20:51:55.578Z,13.27
2017-11-26T20:54:24.374Z,8.23
2017-11-26T20:56:59.838Z,14.82
2017-11-26T20:59:31.655Z,10.63
2017-11-26T21:01:59.706Z,11.35
2017-11-26T21:04:27.726Z,13.88
2017-11-26T21:06:56.702Z,10.75
2017-11-26T21:09:25.511Z,12.68
2017-11-26T21:11:58.602Z,10.70
2017-11-26T21:14:28.577Z,7.90
2017-11-26T21:16:57.603Z,23.60
2017-11-26T21:19:26.398Z,10.90
2017-11-26T21:21:55.366Z,10.35
2017-11-26T21:24:24.155Z,13.02
2017-11-26T21:26:52.954Z,8.52
2017-11-26T21:29:23.645Z,16.75
2017-11-26T21:31:52.634Z,15.20
2017-11-26T21:34:21.694Z,11.00
2017-11-26T21:36:51.658Z,10.77
2017-11-26T21:39:21.706Z,12.27
2017-11-26T21:41:53.796Z,10.77
2017-11-26T21:44:25.526Z,11.20
2017-11-26T21:46:54.322Z,8.00
2017-11-26T21:49:22.357Z,9.77
2017-11-26T21:51:50.394Z,8.75
2017-11-26T21:54:18.434Z,8.77
2017-11-26T21:56:47.367Z,9.02
2017-11-26T21:59:17.455Z,10.90
2017-11-26T22:01:45.490Z,7.40
2017-11-26T22:04:14.277Z,10.10
2017-11-26T22:06:43.101Z,7.75
2017-11-26T22:09:12.038Z,7.30
2017-11-26T22:11:40.098Z,11.30
2017-11-26T22:14:08.110Z,8.77
2017-11-26T22:16:41.425Z,16.12
2017-11-26T22:19:10.246Z,11.05
2017-11-26T22:21:39.181Z,10.23
2017-11-26T22:24:10.042Z,14.82
2017-11-26T22:26:38.110Z,11.45
2017-11-26T22:29:06.138Z,7.90
2017-11-26T22:31:34.161Z,6.95
2017-11-26T22:34:08.098Z,13.48
2017-11-26T22:36:37.103Z,10.27
2017-11-26T22:39:05.186Z,9.15
2017-11-26T22:41:35.934Z,13.65
2017-11-26T22:44:03.970Z,11.45
2017-11-26T22:49:00.478Z,8.02
2017-11-26T22:51:35.217Z,11.77
2017-11-26T22:54:03.250Z,10.38
2017-11-26T22:56:32.026Z,9.38
2017-11-26T22:59:00.837Z,11.55
2017-11-26T23:01:30.805Z,9.60
2017-11-26T23:04:00.826Z,9.45
2017-11-26T23:06:31.345Z,11.70
2017-11-26T23:08:59.360Z,8.00
2017-11-26T23:11:30.361Z,8.60
2017-11-26T23:13:59.349Z,13.52
2017-11-26T23:16:28.259Z,7.72
2017-11-26T23:18:58.986Z,9.93
2017-11-26T23:21:27.889Z,11.45
2017-11-26T23:23:58.953Z,9.95
2017-11-26T23:26:27.929Z,9.85
2017-11-26T23:28:57.721Z,10.50
2017-11-26T23:31:25.769Z,10.23
2017-11-26T23:33:53.893Z,9.27
2017-11-26T23:36:22.873Z,8.05
2017-11-26T23:38:51.697Z,9.60
2017-11-26T23:41:19.713Z,9.82
2017-11-26T23:43:48.645Z,9.93
2017-11-26T23:46:21.227Z,9.02
2017-11-26T23:48:49.261Z,13.07
2017-11-26T23:51:19.965Z,13.07
2017-11-26T23:53:52.626Z,9.05
2017-11-26T23:56:20.669Z,8.95
2017-11-26T23:58:48.701Z,9.88
